Time;durP1;ratioP1;P1;durP2;ratioP2;P2;SDS_P1;SDS_P2;PMS_P1;PMS_P2;Temp;Humidity;BMP_temperature;BMP_pressure;BME280_temperature;BME280_humidity;BME280_pressure;Samples;Min_cycle;Max_cycle;Signal;HPM_P1;HPM_P2
2022/10/05 00:00:53;;;;;;;5.60;5.03;;;;;;;11.24;nan;100040.63;4870720;29;20208;-74
2022/10/05 00:03:21;;;;;;;5.93;4.43;;;;;;;11.28;nan;100037.69;4870776;29;20294;-73
2022/10/05 00:05:47;;;;;;;5.88;5.28;;;;;;;11.29;nan;100039.41;4868662;29;20708;-73
2022/10/05 00:08:21;;;;;;;5.75;4.60;;;;;;;11.29;nan;100039.41;4868712;29;20636;-73
2022/10/05 00:10:46;;;;;;;7.70;4.88;;;;;;;11.30;nan;100043.72;4868804;29;20478;-75
2022/10/05 00:13:20;;;;;;;7.30;4.93;;;;;;;11.29;nan;100044.66;4883158;29;20249;-73
2022/10/05 00:15:47;;;;;;;7.47;5.28;;;;;;;11.23;nan;100052.94;4869873;29;20215;-73
2022/10/05 00:18:19;;;;;;;6.80;5.32;;;;;;;11.20;nan;100044.34;4868658;29;20247;-73
2022/10/05 00:20:46;;;;;;;5.50;4.80;;;;;;;11.17;nan;100049.81;4868683;29;20204;-74
2022/10/05 00:23:25;;;;;;;5.93;5.03;;;;;;;11.17;nan;100047.19;4876078;29;20670;-73
2022/10/05 00:25:50;;;;;;;5.22;4.70;;;;;;;11.16;nan;100035.81;4891622;29;20210;-73
2022/10/05 00:28:26;;;;;;;6.87;5.63;;;;;;;11.15;nan;100036.75;4885787;29;20730;-73
2022/10/05 00:30:59;;;;;;;6.53;5.45;;;;;;;11.09;nan;100037.09;4883843;29;20502;-74
2022/10/05 00:33:25;;;;;;;7.65;5.60;;;;;;;11.04;nan;100039.16;4883575;29;20490;-73
2022/10/05 00:35:53;;;;;;;7.00;5.43;;;;;;;10.98;nan;100036.91;4885430;29;20198;-73
2022/10/05 00:38:19;;;;;;;6.07;4.40;;;;;;;10.92;nan;100039.88;4885144;29;20214;-73
2022/10/05 00:41:02;;;;;;;5.00;4.40;;;;;;;10.87;nan;100031.41;4885555;29;20207;-73
2022/10/05 00:44:01;;;;;;;7.45;4.72;;;;;;;10.78;nan;100028.41;4899527;29;20745;-73
2022/10/05 00:46:36;;;;;;;9.07;4.75;;;;;;;10.78;nan;100032.81;4885295;29;20222;-74
2022/10/05 00:49:36;;;;;;;4.80;4.40;;;;;;;10.77;nan;100026.69;4884942;29;20672;-73
2022/10/05 00:52:08;;;;;;;5.40;4.90;;;;;;;10.77;nan;100031.09;4885883;29;20739;-73
2022/10/05 00:54:48;;;;;;;6.65;5.85;;;;;;;10.77;nan;100023.22;4885211;29;20183;-73
2022/10/05 00:57:14;;;;;;;7.53;4.72;;;;;;;10.76;nan;100024.16;4887254;29;20892;-74
2022/10/05 00:59:45;;;;;;;5.67;4.27;;;;;;;10.76;nan;100018.91;4885204;29;20184;-73
2022/10/05 01:02:13;;;;;;;7.47;5.13;;;;;;;10.73;nan;100014.66;4885576;29;20624;-74
2022/10/05 01:04:50;;;;;;;7.00;4.43;;;;;;;10.72;nan;100028.75;4884845;29;20463;-74
2022/10/05 01:07:28;;;;;;;6.65;5.32;;;;;;;10.70;nan;100020.09;4885052;29;20216;-74
2022/10/05 01:10:05;;;;;;;9.15;5.68;;;;;;;10.65;nan;100024.78;4899527;29;20222;-73
2022/10/05 01:12:33;;;;;;;7.45;6.47;;;;;;;10.63;nan;100021.38;4884973;29;20232;-74
2022/10/05 01:15:30;;;;;;;4.97;4.32;;;;;;;10.60;nan;100019.78;4885075;29;20204;-74
2022/10/05 01:18:09;;;;;;;6.55;5.82;;;;;;;10.53;nan;100020.22;4884527;29;20233;-74
2022/10/05 01:20:49;;;;;;;8.80;5.80;;;;;;;10.47;nan;100024.03;4884960;29;20734;-73
2022/10/05 01:23:37;;;;;;;6.57;5.20;;;;;;;10.42;nan;100020.81;4884734;29;20215;-73
2022/10/05 01:26:30;;;;;;;6.95;5.07;;;;;;;10.40;nan;100020.91;4899131;29;20219;-73
2022/10/05 01:29:01;;;;;;;6.00;5.32;;;;;;;10.37;nan;100020.25;4885175;29;20187;-74
2022/10/05 01:31:41;;;;;;;6.13;4.90;;;;;;;10.35;nan;100008.97;4884917;29;20326;-73
2022/10/05 01:34:41;;;;;;;4.82;4.35;;;;;;;10.30;nan;100016.25;4883084;29;20701;-73
2022/10/05 01:37:41;;;;;;;5.10;4.22;;;;;;;10.26;nan;100012.94;4897738;29;20272;-73
2022/10/05 01:40:21;;;;;;;5.97;4.63;;;;;;;10.27;nan;100019.03;4884629;29;20294;-73
2022/10/05 01:43:09;;;;;;;5.22;4.65;;;;;;;10.29;nan;100007.56;4899441;29;20279;-73
2022/10/05 01:45:40;;;;;;;4.82;3.92;;;;;;;10.34;nan;100004.66;4883476;29;20201;-73
2022/10/05 01:48:39;;;;;;;7.85;4.80;;;;;;;10.33;nan;100008.22;4884584;29;20215;-73
2022/10/05 01:51:36;;;;;;;6.28;4.47;;;;;;;10.32;nan;99998.66;4882280;29;20618;-73
2022/10/05 01:54:08;;;;;;;6.82;4.88;;;;;;;10.32;nan;100004.75;4884356;29;20720;-73
2022/10/05 01:57:09;;;;;;;10.70;4.95;;;;;;;10.30;nan;100000.50;4887503;29;20206;-73
2022/10/05 01:59:46;;;;;;;6.40;4.47;;;;;;;10.30;nan;99990.84;4865806;29;20205;-73
2022/10/05 02:02:17;;;;;;;6.68;4.68;;;;;;;10.32;nan;99990.78;4887944;29;20276;-73
2022/10/05 02:05:12;;;;;;;7.25;4.70;;;;;;;10.30;nan;99988.22;4887515;29;20605;-73
2022/10/05 02:07:50;;;;;;;5.50;5.00;;;;;;;10.28;nan;99984.84;4891094;29;20790;-73
2022/10/05 02:10:31;;;;;;;7.63;5.05;;;;;;;10.25;nan;99986.75;4882421;29;20239;-73
2022/10/05 02:13:08;;;;;;;11.52;5.10;;;;;;;10.24;nan;99985.91;4887497;29;20665;-73
2022/10/05 02:15:45;;;;;;;6.13;4.35;;;;;;;10.21;nan;99980.84;4895709;29;20671;-74
2022/10/05 02:18:18;;;;;;;5.45;4.40;;;;;;;10.21;nan;99986.09;4880221;29;20331;-73
2022/10/05 02:20:46;;;;;;;5.90;5.13;;;;;;;10.20;nan;99985.22;4887701;29;20187;-73
2022/10/05 02:23:16;;;;;;;6.28;4.68;;;;;;;10.22;nan;99981.69;4886282;29;20670;-73
2022/10/05 02:25:45;;;;;;;5.93;4.55;;;;;;;10.19;nan;99975.66;4887247;29;20195;-73
2022/10/05 02:28:18;;;;;;;8.00;5.72;;;;;;;10.18;nan;99978.41;4885507;29;20212;-73
2022/10/05 02:31:03;;;;;;;7.80;5.25;;;;;;;10.15;nan;99974.16;4885617;29;20218;-74
2022/10/05 02:33:31;;;;;;;6.20;3.97;;;;;;;10.14;nan;99971.63;4885971;29;20188;-73
2022/10/05 02:36:22;;;;;;;5.85;3.88;;;;;;;10.13;nan;99977.81;4898078;29;20207;-73
2022/10/05 02:39:13;;;;;;;5.20;3.85;;;;;;;10.05;nan;99972.13;4900938;29;20229;-73
2022/10/05 02:41:51;;;;;;;5.00;3.00;;;;;;;9.98;nan;99975.09;4887286;29;20195;-73
2022/10/05 02:44:57;;;;;;;3.20;2.90;;;;;;;9.93;nan;99971.84;4882392;29;20306;-73
2022/10/05 02:47:22;;;;;;;3.58;2.80;;;;;;;9.86;nan;99973.16;4885610;29;20214;-73
2022/10/05 02:49:57;;;;;;;4.10;3.13;;;;;;;9.82;nan;99976.00;4885017;29;20195;-73
2022/10/05 02:52:37;;;;;;;4.55;3.38;;;;;;;9.80;nan;99970.00;4885207;29;20282;-73
2022/10/05 02:55:28;;;;;;;5.30;3.00;;;;;;;9.80;nan;99977.88;4885741;29;20282;-73
2022/10/05 02:58:07;;;;;;;3.25;2.95;;;;;;;9.77;nan;99975.41;4886896;29;20214;-73
2022/10/05 03:00:41;;;;;;;4.15;3.17;;;;;;;9.75;nan;99965.88;4894304;29;20268;-73
2022/10/05 03:03:23;;;;;;;4.40;3.38;;;;;;;9.74;nan;99973.81;4900422;29;20296;-73
2022/10/05 03:05:56;;;;;;;4.05;3.65;;;;;;;9.70;nan;99973.13;4884748;29;20197;-74
2022/10/05 03:08:27;;;;;;;4.70;3.13;;;;;;;9.64;nan;99983.09;4886723;29;20206;-73
2022/10/05 03:11:30;;;;;;;3.40;2.75;;;;;;;9.61;nan;99984.09;4885597;29;20215;-73
2022/10/05 03:13:57;;;;;;;5.20;3.47;;;;;;;9.60;nan;99986.81;4884893;29;20242;-74
2022/10/05 03:16:28;;;;;;;3.67;3.10;;;;;;;9.58;nan;99986.06;4886425;29;20211;-73
2022/10/05 03:19:31;;;;;;;4.18;3.15;;;;;;;9.52;nan;99990.69;4896739;29;20228;-74
2022/10/05 03:22:09;;;;;;;5.95;3.58;;;;;;;9.44;nan;99989.41;4896894;29;20194;-73
2022/10/05 03:24:43;;;;;;;3.85;3.53;;;;;;;9.38;nan;99987.97;4896656;29;20411;-74
2022/10/05 03:27:34;;;;;;;3.95;3.13;;;;;;;9.40;nan;99996.59;4900682;29;20203;-74
2022/10/05 03:30:16;;;;;;;4.90;4.15;;;;;;;9.41;nan;99990.41;4900303;29;20294;-74
2022/10/05 03:33:09;;;;;;;6.15;3.85;;;;;;;9.40;nan;99988.72;4885416;29;20193;-74
2022/10/05 03:35:50;;;;;;;4.78;3.85;;;;;;;9.35;nan;99984.66;4900749;29;20199;-74
2022/10/05 03:38:30;;;;;;;4.45;3.83;;;;;;;9.31;nan;99994.44;4886367;29;20206;-74
2022/10/05 03:41:16;;;;;;;4.18;3.63;;;;;;;9.23;nan;99991.38;4878991;29;20229;-74
2022/10/05 03:43:58;;;;;;;5.65;4.00;;;;;;;9.17;nan;99984.69;4884969;29;20278;-73
2022/10/05 03:46:37;;;;;;;6.75;4.03;;;;;;;9.13;nan;99977.91;4880357;29;20218;-74
2022/10/05 03:49:18;;;;;;;5.78;5.28;;;;;;;9.08;nan;99985.16;4884909;29;20330;-74
2022/10/05 03:52:24;;;;;;;5.70;4.70;;;;;;;9.06;nan;99993.09;4885965;29;20221;-74
2022/10/05 03:55:00;;;;;;;6.93;4.20;;;;;;;9.05;nan;99983.56;4883553;29;20206;-74
2022/10/05 03:57:34;;;;;;;4.93;4.03;;;;;;;9.05;nan;99978.31;4880877;29;20222;-74
2022/10/05 04:00:17;;;;;;;6.25;4.03;;;;;;;9.05;nan;99975.69;4884014;29;20376;-74
2022/10/05 04:03:27;;;;;;;6.07;3.63;;;;;;;9.06;nan;99969.50;4900137;29;20210;-74
2022/10/05 04:05:58;;;;;;;4.68;4.13;;;;;;;9.06;nan;99972.13;4885008;29;20218;-75
2022/10/05 04:08:49;;;;;;;5.65;4.95;;;;;;;9.04;nan;99966.13;4886499;29;20227;-74
2022/10/05 04:11:33;;;;;;;9.90;5.28;;;;;;;9.04;nan;99976.59;4894049;29;20283;-74
2022/10/05 04:14:31;;;;;;;5.20;4.65;;;;;;;9.05;nan;99973.06;4899584;29;20661;-73
2022/10/05 04:17:01;;;;;;;9.82;4.45;;;;;;;9.06;nan;99974.75;4883268;29;20294;-72
2022/10/05 04:19:33;;;;;;;5.47;4.10;;;;;;;9.12;nan;99975.38;4899996;29;20285;-72
2022/10/05 04:22:08;;;;;;;12.77;5.03;;;;;;;9.15;nan;99967.34;4879482;29;20704;-73
2022/10/05 04:24:41;;;;;;;6.13;3.53;;;;;;;9.17;nan;99974.19;4884307;29;20194;-73
2022/10/05 04:27:38;;;;;;;3.78;2.70;;;;;;;9.15;nan;99972.56;4899491;29;20500;-72
2022/10/05 04:30:08;;;;;;;8.23;3.90;;;;;;;9.13;nan;99971.81;4881537;29;20203;-72
2022/10/05 04:32:53;;;;;;;5.95;4.30;;;;;;;9.12;nan;99970.97;4899134;29;20724;-72
2022/10/05 04:35:42;;;;;;;7.93;3.90;;;;;;;9.11;nan;99971.91;4885600;29;20202;-72
2022/10/05 04:38:15;;;;;;;6.22;4.10;;;;;;;9.09;nan;99969.34;4883784;29;20218;-73
2022/10/05 04:40:40;;;;;;;7.80;6.78;;;;;;;9.11;nan;99971.06;4878407;29;20240;-73
2022/10/05 04:43:13;;;;;;;5.57;4.83;;;;;;;9.12;nan;99967.50;4883637;29;20191;-73
2022/10/05 04:45:47;;;;;;;5.70;5.10;;;;;;;9.07;nan;99960.75;4877412;29;21124;-73
2022/10/05 04:48:33;;;;;;;6.00;5.03;;;;;;;9.05;nan;99961.75;4893208;29;20218;-73
2022/10/05 04:51:31;;;;;;;8.82;5.82;;;;;;;8.96;nan;99963.03;4899586;29;20227;-72
2022/10/05 04:54:19;;;;;;;12.60;6.30;;;;;;;8.91;nan;99965.06;4885113;29;20657;-73
2022/10/05 04:56:52;;;;;;;9.88;6.20;;;;;;;8.86;nan;99964.47;4897581;29;20222;-73
2022/10/05 04:59:49;;;;;;;8.65;6.25;;;;;;;8.84;nan;99963.69;4883187;29;20696;-73
2022/10/05 05:02:21;;;;;;;7.32;5.50;;;;;;;8.80;nan;99963.00;4898215;29;20179;-73
2022/10/05 05:05:20;;;;;;;8.88;5.97;;;;;;;8.77;nan;99957.88;4883686;29;20191;-73
2022/10/05 05:08:05;;;;;;;6.05;5.40;;;;;;;8.76;nan;99958.00;4882919;29;20261;-72
2022/10/05 05:10:46;;;;;;;6.60;5.50;;;;;;;8.76;nan;99966.69;4885131;29;20195;-74
2022/10/05 05:13:51;;;;;;;5.75;5.07;;;;;;;8.79;nan;99963.91;4898478;29;20203;-74
2022/10/05 05:16:32;;;;;;;11.32;5.82;;;;;;;8.79;nan;99963.91;4878204;29;20310;-75
2022/10/05 05:19:11;;;;;;;5.82;4.57;;;;;;;8.80;nan;99962.13;4894542;29;20195;-74
2022/10/05 05:21:48;;;;;;;5.78;4.50;;;;;;;8.79;nan;99965.69;4898459;29;20191;-74
2022/10/05 05:24:51;;;;;;;5.50;4.30;;;;;;;8.80;nan;99970.00;4898548;29;20198;-73
2022/10/05 05:27:25;;;;;;;8.80;4.78;;;;;;;8.79;nan;99965.69;4897916;29;20462;-74
2022/10/05 05:30:02;;;;;;;6.57;5.13;;;;;;;8.81;nan;99971.69;4884885;29;20652;-74
2022/10/05 05:32:55;;;;;;;5.90;4.30;;;;;;;8.83;nan;99969.81;4902461;29;20195;-74
2022/10/05 05:35:38;;;;;;;8.40;4.75;;;;;;;8.83;nan;99968.09;4888275;29;20195;-72
2022/10/05 05:38:31;;;;;;;6.28;4.15;;;;;;;8.85;nan;99981.91;4885770;29;20733;-71
2022/10/05 05:41:16;;;;;;;5.10;4.60;;;;;;;8.89;nan;99985.25;4901580;29;20274;-72
2022/10/05 05:44:05;;;;;;;6.78;4.85;;;;;;;8.91;nan;99983.41;4886590;29;20187;-72
2022/10/05 05:46:34;;;;;;;7.40;5.03;;;;;;;8.94;nan;99985.00;4885882;29;20393;-73
2022/10/05 05:49:06;;;;;;;6.63;5.15;;;;;;;8.97;nan;99984.88;4888007;29;20183;-73
2022/10/05 05:51:38;;;;;;;7.30;4.07;;;;;;;9.00;nan;100000.44;4900917;29;20211;-73
2022/10/05 05:54:18;;;;;;;5.05;4.53;;;;;;;9.02;nan;99993.34;4884641;29;20205;-73
2022/10/05 05:56:50;;;;;;;5.93;4.32;;;;;;;9.00;nan;100000.44;4901340;29;20900;-73
2022/10/05 05:59:18;;;;;;;5.63;4.55;;;;;;;9.02;nan;100003.81;4901505;29;20425;-73
2022/10/05 06:01:50;;;;;;;7.13;4.15;;;;;;;9.03;nan;100006.34;4886319;29;20286;-73
2022/10/05 06:04:24;;;;;;;5.40;4.80;;;;;;;9.09;nan;100010.44;4894220;29;20471;-73
2022/10/05 06:06:52;;;;;;;4.22;3.67;;;;;;;9.16;nan;100010.97;4886721;29;20305;-73
2022/10/05 06:09:48;;;;;;;6.78;4.93;;;;;;;9.23;nan;100017.59;4887336;29;20202;-73
2022/10/05 06:12:37;;;;;;;4.13;3.67;;;;;;;9.27;nan;100011.28;4885413;29;20273;-74
2022/10/05 06:15:20;;;;;;;4.45;3.95;;;;;;;9.31;nan;100020.66;4901803;29;20286;-74
2022/10/05 06:17:51;;;;;;;5.45;4.20;;;;;;;9.35;nan;100011.72;4901869;29;20240;-73
2022/10/05 06:20:38;;;;;;;11.18;4.80;;;;;;;9.40;nan;100009.72;4902173;29;20251;-73
2022/10/05 06:23:17;;;;;;;6.80;4.63;;;;;;;9.46;nan;100014.63;4884886;29;20199;-73
2022/10/05 06:26:10;;;;;;;9.98;4.53;;;;;;;9.54;nan;100019.47;4887762;29;20619;-73
2022/10/05 06:28:37;;;;;;;8.20;5.03;;;;;;;9.61;nan;100025.22;4889225;29;20214;-74
2022/10/05 06:31:28;;;;;;;6.97;4.97;;;;;;;9.69;nan;100017.78;4885971;29;20444;-74
2022/10/05 06:34:17;;;;;;;5.85;4.25;;;;;;;9.78;nan;100027.81;4901642;29;20284;-74
2022/10/05 06:36:59;;;;;;;5.45;4.63;;;;;;;9.85;nan;100029.16;4885849;29;20269;-74
2022/10/05 06:39:29;;;;;;;7.60;5.82;;;;;;;9.91;nan;100023.59;4901256;29;20200;-71
2022/10/05 06:42:12;;;;;;;7.07;5.18;;;;;;;10.00;nan;100029.28;4885307;29;20190;-74
2022/10/05 06:45:35;;;;;;;5.40;4.55;;;;;;;10.12;nan;100032.06;4894530;29;20217;-74
2022/10/05 06:48:35;;;;;;;9.90;5.32;;;;;;;10.20;nan;100032.47;4886274;29;20590;-74
2022/10/05 06:51:51;;;;;;;7.57;4.60;;;;;;;10.32;nan;100033.63;4886739;29;20227;-74
2022/10/05 06:54:46;;;;;;;4.90;4.40;;;;;;;10.43;nan;100037.44;4885444;29;20328;-74
2022/10/05 06:57:45;;;;;;;7.22;5.93;;;;;;;10.55;nan;100031.47;4900951;29;20225;-71
2022/10/05 07:00:23;;;;;;;6.32;4.60;;;;;;;10.66;nan;100026.44;4885085;29;20276;-71
2022/10/05 07:03:17;;;;;;;5.75;5.07;;;;;;;10.80;nan;100020.41;4885044;29;20178;-74
2022/10/05 07:05:51;;;;;;;6.07;5.43;;;;;;;10.91;nan;100038.19;4897607;29;20640;-74
2022/10/05 07:08:37;;;;;;;6.28;5.47;;;;;;;11.04;nan;100028.63;4900676;29;20311;-75
2022/10/05 07:11:14;;;;;;;9.75;6.18;;;;;;;11.17;nan;100024.34;4885966;29;20267;-74
2022/10/05 07:14:37;;;;;;;6.32;4.97;;;;;;;11.32;nan;100032.28;4900789;29;20734;-74
2022/10/05 07:17:20;;;;;;;6.93;4.82;;;;;;;11.47;nan;100020.81;4867226;29;20233;-74
2022/10/05 07:20:24;;;;;;;6.60;5.22;;;;;;;11.63;nan;100026.84;4866226;29;20195;-73
2022/10/05 07:23:12;;;;;;;7.60;6.63;;;;;;;11.78;nan;100024.22;4876574;29;20198;-72
2022/10/05 07:25:49;;;;;;;7.45;6.40;;;;;;;11.92;nan;100026.88;4900743;29;20187;-73
2022/10/05 07:28:34;;;;;;;10.82;7.15;;;;;;;12.08;nan;100022.31;4896045;29;20551;-73
2022/10/05 07:31:05;;;;;;;9.63;6.60;;;;;;;12.25;nan;100018.59;4900417;29;20226;-73
2022/10/05 07:33:47;;;;;;;9.15;8.25;;;;;;;12.44;nan;100014.78;4884844;29;20198;-73
2022/10/05 07:39:39;;;;;;;6.03;5.25;;;;;;;12.84;nan;100020.94;4886052;29;20190;-72
2022/10/05 07:42:17;;;;;;;7.55;6.85;;;;;;;13.01;nan;100009.25;4880266;29;20210;-73
2022/10/05 07:44:57;;;;;;;7.78;5.93;;;;;;;13.16;nan;100016.13;4900735;29;20233;-73
2022/10/05 07:47:34;;;;;;;8.10;6.50;;;;;;;13.32;nan;100009.84;4900325;29;20310;-73
2022/10/05 07:50:03;;;;;;;7.05;5.93;;;;;;;13.46;nan;100018.50;4895427;29;20576;-73
2022/10/05 07:52:35;;;;;;;6.90;5.80;;;;;;;13.60;nan;100021.97;4883882;29;20226;-74
2022/10/05 07:55:17;;;;;;;5.90;5.30;;;;;;;13.75;nan;100017.44;4884019;29;20664;-74
2022/10/05 07:58:11;;;;;;;8.45;5.70;;;;;;;14.08;nan;100022.13;4899165;29;20211;-74
2022/10/05 08:00:44;;;;;;;5.47;4.38;;;;;;;14.91;nan;100026.66;4899662;29;20207;-74
2022/10/05 08:03:28;;;;;;;5.18;4.68;;;;;;;16.29;nan;100007.97;4885386;29;20437;-74
2022/10/05 08:05:56;;;;;;;5.75;5.00;;;;;;;17.63;nan;100000.28;4885869;29;20197;-73
2022/10/05 08:08:53;;;;;;;7.18;4.47;;;;;;;19.11;nan;99994.09;4885714;29;20259;-73
2022/10/05 08:11:23;;;;;;;4.55;3.80;;;;;;;;;;4884897;29;20465;-73
2022/10/05 08:14:04;;;;;;;3.90;3.47;;;;;;;21.37;nan;99988.94;4885946;29;20215;-74
2022/10/05 08:16:36;;;;;;;4.97;4.57;;;;;;;22.28;nan;99991.00;4885105;29;20711;-76
2022/10/05 08:19:16;;;;;;;4.53;3.80;;;;;;;23.02;nan;99991.09;4885095;29;20450;-74
2022/10/05 08:21:51;;;;;;;4.50;3.60;;;;;;;23.70;nan;99981.72;4885531;29;20537;-75
2022/10/05 08:24:55;;;;;;;5.00;3.47;;;;;;;24.28;nan;99985.00;4884843;29;20451;-72
2022/10/05 08:27:55;;;;;;;4.30;3.57;;;;;;;24.87;nan;99979.03;4888680;29;21118;-72
2022/10/05 08:30:22;;;;;;;6.83;3.80;;;;;;;25.42;nan;99977.03;4899179;29;20435;-72
2022/10/05 08:32:59;;;;;;;4.70;3.47;;;;;;;26.13;nan;99969.25;4885237;29;21108;-72
2022/10/05 08:35:36;;;;;;;3.13;2.83;;;;;;;26.76;nan;99977.59;4884784;29;21325;-72
2022/10/05 08:38:09;;;;;;;4.00;3.70;;;;;;;26.97;nan;99974.03;4884252;29;20823;-73
2022/10/05 08:41:02;;;;;;;4.43;4.13;;;;;;;27.13;nan;99977.25;4884730;29;20457;-73
2022/10/05 08:44:06;;;;;;;4.10;3.20;;;;;;;27.13;nan;99973.75;4884663;29;20445;-74
2022/10/05 08:46:47;;;;;;;3.40;3.00;;;;;;;27.13;nan;99971.03;4884279;29;20521;-73
2022/10/05 08:49:37;;;;;;;4.23;3.83;;;;;;;27.43;nan;99974.38;4884879;29;20507;-73
2022/10/05 08:52:15;;;;;;;3.33;3.00;;;;;;;27.75;nan;99967.50;4884609;29;20484;-74
2022/10/05 08:54:53;;;;;;;4.43;3.83;;;;;;;27.94;nan;99963.25;4884081;29;20799;-72
2022/10/05 08:57:47;;;;;;;5.23;3.20;;;;;;;27.93;nan;99964.28;4884136;29;20516;-73
2022/10/05 09:00:19;;;;;;;3.87;3.37;;;;;;;27.78;nan;99966.25;4884482;29;20402;-73
2022/10/05 09:03:11;;;;;;;6.17;3.33;;;;;;;27.57;nan;99972.59;4885438;29;20475;-73
2022/10/05 09:06:06;;;;;;;3.80;3.30;;;;;;;27.46;nan;99968.59;4887096;29;20476;-73
2022/10/05 09:08:40;;;;;;;3.03;2.77;;;;;;;27.36;nan;99955.47;4888235;29;21037;-73
2022/10/05 09:11:36;;;;;;;5.30;3.33;;;;;;;26.97;nan;99958.69;4887998;29;20718;-73
2022/10/05 09:14:23;;;;;;;3.63;2.13;;;;;;;26.66;nan;99957.19;4883653;29;20454;-73
2022/10/05 09:16:56;;;;;;;2.27;1.57;;;;;;;26.24;nan;99960.69;4887871;29;20534;-73
2022/10/05 09:19:47;;;;;;;2.80;1.70;;;;;;;25.92;nan;99957.41;4887865;29;21177;-73
2022/10/05 09:22:30;;;;;;;1.80;1.70;;;;;;;25.47;nan;99961.19;4887647;29;20449;-73
2022/10/05 09:25:01;;;;;;;1.67;1.50;;;;;;;24.99;nan;99950.72;4887939;29;20445;-73
2022/10/05 09:27:36;;;;;;;3.23;1.63;;;;;;;24.63;nan;99955.91;4888077;29;20872;-73
2022/10/05 09:30:04;;;;;;;2.50;1.90;;;;;;;24.38;nan;99961.41;4887978;29;20454;-73
2022/10/05 09:32:42;;;;;;;2.03;1.70;;;;;;;24.15;nan;99958.72;4889144;29;20460;-74
2022/10/05 09:35:22;;;;;;;1.67;1.57;;;;;;;23.99;nan;99964.19;4888087;29;20540;-73
2022/10/05 09:38:15;;;;;;;1.53;1.43;;;;;;;23.89;nan;99948.28;4887618;29;20432;-75
2022/10/05 09:40:49;;;;;;;1.70;1.60;;;;;;;23.80;nan;99952.88;4887523;29;20441;-74
2022/10/05 09:43:52;;;;;;;1.50;1.30;;;;;;;23.67;nan;99952.56;4887511;29;20459;-74
2022/10/05 09:46:28;;;;;;;2.27;2.00;;;;;;;23.66;nan;99950.91;4887041;29;20819;-74
2022/10/05 09:49:06;;;;;;;5.83;1.53;;;;;;;23.68;nan;99953.38;4887141;29;20443;-74
2022/10/05 09:51:50;;;;;;;1.90;1.60;;;;;;;23.72;nan;99944.84;4887537;29;20481;-74
2022/10/05 09:55:00;;;;;;;2.03;1.30;;;;;;;23.73;nan;99943.00;4890073;29;20471;-74
2022/10/05 09:57:44;;;;;;;1.13;1.03;;;;;;;23.75;nan;99941.00;4887193;29;20528;-74
2022/10/05 10:00:37;;;;;;;1.60;1.40;;;;;;;23.69;nan;99942.50;4886797;29;20444;-73
2022/10/05 10:03:41;;;;;;;1.30;1.20;;;;;;;23.75;nan;99941.81;4887227;29;20940;-73
2022/10/05 10:06:23;;;;;;;1.67;1.30;;;;;;;23.87;nan;99944.94;4886727;29;20501;-74
2022/10/05 10:09:26;;;;;;;1.70;1.13;;;;;;;24.05;nan;99940.16;4887437;29;20815;-75
2022/10/05 10:12:17;;;;;;;3.17;1.47;;;;;;;24.04;nan;99940.34;4886757;29;20946;-73
2022/10/05 10:14:48;;;;;;;1.47;1.37;;;;;;;24.03;nan;99927.91;4886854;29;21038;-73
2022/10/05 10:20:22;;;;;;;3.73;1.33;;;;;;;24.10;nan;99936.13;4891032;29;20479;-85
2022/10/05 10:23:27;;;;;;;1.63;1.20;;;;;;;24.21;nan;99931.16;4895411;29;20645;-85
2022/10/05 10:26:13;;;;;;;2.03;1.37;;;;;;;24.30;nan;99931.94;4903615;29;20434;-83
2022/10/05 10:29:15;;;;;;;2.00;1.57;;;;;;;24.40;nan;99940.59;4890751;29;21091;-84
2022/10/05 10:32:08;;;;;;;1.27;1.17;;;;;;;24.47;nan;99933.53;4882179;29;20642;-85
2022/10/05 10:35:00;;;;;;;1.30;1.10;;;;;;;24.40;nan;99935.22;4880647;29;20411;-84
2022/10/05 10:37:38;;;;;;;2.50;1.10;;;;;;;24.29;nan;99941.00;4876387;29;20507;-85
2022/10/05 10:40:36;;;;;;;1.40;1.10;;;;;;;24.27;nan;99940.34;4883999;29;20618;-86
2022/10/05 10:43:29;;;;;;;1.90;1.30;;;;;;;24.33;nan;99934.28;4880797;29;20526;-85
2022/10/05 10:46:07;;;;;;;1.20;1.00;;;;;;;24.39;nan;99935.41;4878459;29;20462;-85
2022/10/05 10:48:53;;;;;;;1.30;1.00;;;;;;;24.45;nan;99938.25;4877361;29;20645;-86
2022/10/05 10:51:54;;;;;;;1.27;1.00;;;;;;;24.46;nan;99950.63;4880361;29;20480;-85
2022/10/05 10:54:52;;;;;;;2.80;1.40;;;;;;;24.41;nan;99944.97;4876626;29;21226;-84
2022/10/05 10:57:32;;;;;;;1.40;1.10;;;;;;;24.36;nan;99930.38;4890821;29;20412;-85
2022/10/05 11:00:14;;;;;;;1.97;1.50;;;;;;;24.35;nan;99932.25;4878129;29;20435;-85
2022/10/05 11:03:03;;;;;;;1.40;1.30;;;;;;;24.39;nan;99938.94;4879133;29;20917;-85
2022/10/05 11:05:36;;;;;;;1.30;1.20;;;;;;;24.35;nan;99937.59;4883902;29;20464;-85
2022/10/05 11:08:14;;;;;;;3.53;1.37;;;;;;;24.24;nan;99935.34;4884572;29;20443;-84
2022/10/05 11:11:03;;;;;;;1.50;1.17;;;;;;;24.24;nan;99927.28;4883606;29;20479;-85
2022/10/05 11:13:47;;;;;;;3.30;1.30;;;;;;;24.25;nan;99937.03;4879995;29;20424;-85
2022/10/05 11:16:31;;;;;;;1.27;1.17;;;;;;;24.30;nan;99937.31;4875411;29;20433;-86
2022/10/05 11:19:22;;;;;;;1.70;1.00;;;;;;;24.24;nan;99932.66;4877210;29;20451;-86
2022/10/05 11:22:19;;;;;;;2.10;1.27;;;;;;;24.23;nan;99928.31;4874871;29;20524;-85
2022/10/05 11:24:54;;;;;;;3.33;2.17;;;;;;;24.23;nan;99926.47;4879930;29;20449;-85
2022/10/05 11:27:40;;;;;;;2.57;1.20;;;;;;;24.27;nan;99922.38;4883605;29;20430;-84
2022/10/05 11:30:34;;;;;;;3.20;1.67;;;;;;;24.34;nan;99927.06;4878939;29;20409;-84
2022/10/05 11:33:27;;;;;;;3.40;1.50;;;;;;;24.40;nan;99923.66;4880413;29;20452;-84
2022/10/05 11:36:10;;;;;;;1.73;1.30;;;;;;;24.41;nan;99919.94;4881264;29;20689;-85
2022/10/05 11:38:52;;;;;;;1.30;1.20;;;;;;;24.40;nan;99908.38;4879322;29;20845;-84
2022/10/05 11:41:35;;;;;;;4.13;1.40;;;;;;;24.38;nan;99906.88;4895464;29;21176;-84
2022/10/05 11:44:14;;;;;;;2.17;1.30;;;;;;;24.41;nan;99923.50;4878299;29;20953;-84
2022/10/05 11:46:58;;;;;;;1.40;1.23;;;;;;;24.43;nan;99902.63;4878794;29;20434;-85
2022/10/05 11:49:50;;;;;;;1.50;1.20;;;;;;;24.42;nan;99908.22;4878413;29;20460;-84
2022/10/05 11:52:24;;;;;;;2.40;1.20;;;;;;;24.42;nan;99911.72;4880134;29;20436;-85
2022/10/05 11:55:12;;;;;;;1.30;1.20;;;;;;;24.44;nan;99899.00;4881697;29;20464;-85
2022/10/05 11:57:43;;;;;;;1.50;1.40;;;;;;;24.44;nan;99900.84;4879714;29;20835;-84
2022/10/05 12:00:18;;;;;;;2.10;1.23;;;;;;;24.44;nan;99899.00;4886999;29;20910;-84
2022/10/05 12:02:53;;;;;;;1.40;1.27;;;;;;;24.45;nan;99895.28;4879336;29;20396;-84
2022/10/05 12:05:21;;;;;;;1.47;1.20;;;;;;;24.46;nan;99896.09;4879145;29;20461;-83
2022/10/05 12:08:09;;;;;;;2.00;1.30;;;;;;;24.50;nan;99889.38;4891562;29;20471;-84
2022/10/05 12:10:53;;;;;;;3.83;1.30;;;;;;;24.50;nan;99892.88;4880975;29;20443;-84
2022/10/05 12:13:25;;;;;;;2.47;1.20;;;;;;;24.53;nan;99889.00;4891094;29;20433;-84
2022/10/05 12:16:00;;;;;;;2.07;1.57;;;;;;;24.54;nan;99892.53;4889456;29;20946;-84
2022/10/05 12:18:28;;;;;;;1.37;1.27;;;;;;;24.55;nan;99881.63;4879136;29;20456;-84
2022/10/05 12:21:22;;;;;;;2.80;1.40;;;;;;;24.61;nan;99880.03;4878375;29;20477;-84
2022/10/05 12:23:56;;;;;;;2.50;1.40;;;;;;;24.63;nan;99881.53;4879280;29;21019;-83
2022/10/05 12:26:27;;;;;;;1.30;1.20;;;;;;;24.70;nan;99878.94;4873818;29;21212;-83
2022/10/05 12:29:12;;;;;;;2.03;1.33;;;;;;;24.74;nan;99877.56;4878024;29;21115;-84
2022/10/05 12:31:57;;;;;;;1.17;1.07;;;;;;;24.76;nan;99872.00;4875202;29;20530;-84
2022/10/05 12:34:37;;;;;;;1.30;1.20;;;;;;;24.78;nan;99870.81;4878728;29;20407;-83
2022/10/05 12:37:40;;;;;;;1.50;1.30;;;;;;;24.78;nan;99872.66;4874161;29;20461;-84
2022/10/05 12:40:26;;;;;;;1.87;1.67;;;;;;;24.84;nan;99874.59;4877878;29;20899;-84
2022/10/05 12:43:29;;;;;;;6.43;1.87;;;;;;;24.82;nan;99868.59;4877807;29;20404;-83
2022/10/05 12:46:22;;;;;;;3.50;1.60;;;;;;;24.87;nan;99863.50;4882730;29;20426;-84
2022/10/05 12:49:12;;;;;;;2.27;1.43;;;;;;;24.92;nan;99853.03;4879192;29;20458;-84
2022/10/05 12:52:05;;;;;;;2.60;1.40;;;;;;;24.94;nan;99849.13;4877131;29;20495;-84
2022/10/05 12:54:56;;;;;;;1.13;1.03;;;;;;;24.95;nan;99849.97;4883101;29;20445;-84
2022/10/05 12:57:39;;;;;;;1.67;1.13;;;;;;;24.97;nan;99849.78;4885905;29;20417;-84
2022/10/05 13:00:08;;;;;;;2.83;1.30;;;;;;;24.98;nan;99840.69;4878538;29;20770;-84
2022/10/05 13:02:49;;;;;;;2.03;1.37;;;;;;;24.97;nan;99841.72;4882061;29;20443;-84
2022/10/05 13:05:15;;;;;;;2.30;1.40;;;;;;;24.94;nan;99845.63;4886892;29;20415;-84
2022/10/05 13:08:12;;;;;;;1.27;1.17;;;;;;;24.99;nan;99850.44;4883970;29;20859;-84
2022/10/05 13:10:52;;;;;;;6.00;1.40;;;;;;;25.01;nan;99841.19;4878344;29;20229;-85